sensor_id;sensor_type;location;lat;lon;timestamp;P1;durP1;ratioP1;P2;durP2;ratioP2
80320;SDS011;69633;47.066;15.450;2024-02-26T00:02:24;6.00;;;2.58;;
80320;SDS011;69633;47.066;15.450;2024-02-26T00:04:52;6.28;;;2.60;;
80320;SDS011;69633;47.066;15.450;2024-02-26T00:07:17;9.65;;;3.47;;
80320;SDS011;69633;47.066;15.450;2024-02-26T00:09:43;7.30;;;3.33;;
80320;SDS011;69633;47.066;15.450;2024-02-26T00:12:08;5.28;;;2.65;;
80320;SDS011;69633;47.066;15.450;2024-02-26T00:14:34;7.97;;;2.55;;
80320;SDS011;69633;47.066;15.450;2024-02-26T00:17:01;6.53;;;2.60;;
80320;SDS011;69633;47.066;15.450;2024-02-26T00:19:27;10.20;;;2.92;;
80320;SDS011;69633;47.066;15.450;2024-02-26T00:21:54;7.30;;;3.10;;
80320;SDS011;69633;47.066;15.450;2024-02-26T00:24:20;6.55;;;2.97;;
80320;SDS011;69633;47.066;15.450;2024-02-26T00:26:47;5.25;;;3.05;;
80320;SDS011;69633;47.066;15.450;2024-02-26T00:29:18;7.18;;;2.85;;
80320;SDS011;69633;47.066;15.450;2024-02-26T00:31:44;8.18;;;3.63;;
80320;SDS011;69633;47.066;15.450;2024-02-26T00:34:10;5.25;;;2.50;;
80320;SDS011;69633;47.066;15.450;2024-02-26T00:36:35;5.32;;;2.85;;
80320;SDS011;69633;47.066;15.450;2024-02-26T00:39:01;5.40;;;2.45;;
80320;SDS011;69633;47.066;15.450;2024-02-26T00:41:29;6.53;;;2.90;;
80320;SDS011;69633;47.066;15.450;2024-02-26T00:43:54;5.55;;;2.47;;
80320;SDS011;69633;47.066;15.450;2024-02-26T00:46:20;4.93;;;2.40;;
80320;SDS011;69633;47.066;15.450;2024-02-26T00:48:46;7.53;;;2.85;;
80320;SDS011;69633;47.066;15.450;2024-02-26T00:51:11;6.38;;;1.90;;
80320;SDS011;69633;47.066;15.450;2024-02-26T00:53:37;5.95;;;2.40;;
80320;SDS011;69633;47.066;15.450;2024-02-26T00:56:03;7.93;;;2.53;;
80320;SDS011;69633;47.066;15.450;2024-02-26T00:58:29;6.30;;;2.60;;
80320;SDS011;69633;47.066;15.450;2024-02-26T01:00:54;8.15;;;3.00;;
80320;SDS011;69633;47.066;15.450;2024-02-26T01:03:20;5.13;;;2.70;;
80320;SDS011;69633;47.066;15.450;2024-02-26T01:05:45;5.07;;;2.47;;
80320;SDS011;69633;47.066;15.450;2024-02-26T01:08:11;7.60;;;2.15;;
80320;SDS011;69633;47.066;15.450;2024-02-26T01:10:36;4.72;;;2.33;;
80320;SDS011;69633;47.066;15.450;2024-02-26T01:13:03;5.95;;;2.40;;
80320;SDS011;69633;47.066;15.450;2024-02-26T01:15:30;4.88;;;2.20;;
80320;SDS011;69633;47.066;15.450;2024-02-26T01:17:55;7.05;;;2.17;;
80320;SDS011;69633;47.066;15.450;2024-02-26T01:20:22;8.88;;;2.47;;
80320;SDS011;69633;47.066;15.450;2024-02-26T01:22:47;5.72;;;2.28;;
80320;SDS011;69633;47.066;15.450;2024-02-26T01:25:14;4.53;;;2.42;;
80320;SDS011;69633;47.066;15.450;2024-02-26T01:27:40;6.35;;;2.50;;
80320;SDS011;69633;47.066;15.450;2024-02-26T01:30:09;4.38;;;2.10;;
80320;SDS011;69633;47.066;15.450;2024-02-26T01:32:35;5.15;;;2.30;;
80320;SDS011;69633;47.066;15.450;2024-02-26T01:35:02;5.90;;;2.65;;
80320;SDS011;69633;47.066;15.450;2024-02-26T01:37:35;4.00;;;2.08;;
80320;SDS011;69633;47.066;15.450;2024-02-26T01:40:01;4.68;;;2.20;;
80320;SDS011;69633;47.066;15.450;2024-02-26T01:42:29;5.60;;;2.20;;
80320;SDS011;69633;47.066;15.450;2024-02-26T01:44:56;6.70;;;2.97;;
80320;SDS011;69633;47.066;15.450;2024-02-26T01:47:21;6.10;;;2.55;;
80320;SDS011;69633;47.066;15.450;2024-02-26T01:49:48;6.72;;;2.47;;
80320;SDS011;69633;47.066;15.450;2024-02-26T01:52:14;4.63;;;2.17;;
80320;SDS011;69633;47.066;15.450;2024-02-26T01:54:40;9.55;;;2.63;;
80320;SDS011;69633;47.066;15.450;2024-02-26T01:57:09;4.55;;;2.17;;
80320;SDS011;69633;47.066;15.450;2024-02-26T01:59:36;7.28;;;2.17;;
80320;SDS011;69633;47.066;15.450;2024-02-26T02:02:03;3.83;;;2.03;;
80320;SDS011;69633;47.066;15.450;2024-02-26T02:04:33;5.07;;;2.47;;
80320;SDS011;69633;47.066;15.450;2024-02-26T02:07:00;4.82;;;2.38;;
80320;SDS011;69633;47.066;15.450;2024-02-26T02:09:27;4.70;;;2.22;;
80320;SDS011;69633;47.066;15.450;2024-02-26T02:11:53;4.75;;;2.10;;
80320;SDS011;69633;47.066;15.450;2024-02-26T02:14:19;3.85;;;1.90;;
80320;SDS011;69633;47.066;15.450;2024-02-26T02:16:45;7.68;;;2.20;;
80320;SDS011;69633;47.066;15.450;2024-02-26T02:19:12;3.08;;;1.70;;
80320;SDS011;69633;47.066;15.450;2024-02-26T02:21:38;5.88;;;2.08;;
80320;SDS011;69633;47.066;15.450;2024-02-26T02:24:04;5.78;;;2.38;;
80320;SDS011;69633;47.066;15.450;2024-02-26T02:26:29;4.43;;;2.38;;
80320;SDS011;69633;47.066;15.450;2024-02-26T02:28:55;4.97;;;2.10;;
80320;SDS011;69633;47.066;15.450;2024-02-26T02:31:21;5.45;;;2.30;;
80320;SDS011;69633;47.066;15.450;2024-02-26T02:33:47;4.32;;;1.90;;
80320;SDS011;69633;47.066;15.450;2024-02-26T02:36:14;2.55;;;1.80;;
80320;SDS011;69633;47.066;15.450;2024-02-26T02:38:48;3.45;;;1.90;;
80320;SDS011;69633;47.066;15.450;2024-02-26T02:41:17;3.78;;;2.17;;
80320;SDS011;69633;47.066;15.450;2024-02-26T02:43:43;5.32;;;1.88;;
80320;SDS011;69633;47.066;15.450;2024-02-26T02:46:09;4.35;;;1.98;;
80320;SDS011;69633;47.066;15.450;2024-02-26T02:48:37;5.45;;;2.58;;
80320;SDS011;69633;47.066;15.450;2024-02-26T02:51:04;3.28;;;1.70;;
80320;SDS011;69633;47.066;15.450;2024-02-26T02:53:31;5.50;;;2.00;;
80320;SDS011;69633;47.066;15.450;2024-02-26T02:55:56;4.63;;;1.77;;
80320;SDS011;69633;47.066;15.450;2024-02-26T02:58:23;3.88;;;1.58;;
80320;SDS011;69633;47.066;15.450;2024-02-26T03:00:48;3.17;;;1.80;;
80320;SDS011;69633;47.066;15.450;2024-02-26T03:03:14;7.07;;;1.80;;
80320;SDS011;69633;47.066;15.450;2024-02-26T03:05:39;4.45;;;1.95;;
80320;SDS011;69633;47.066;15.450;2024-02-26T03:08:06;3.72;;;1.88;;
80320;SDS011;69633;47.066;15.450;2024-02-26T03:10:31;4.72;;;1.60;;
80320;SDS011;69633;47.066;15.450;2024-02-26T03:12:57;4.35;;;2.20;;
80320;SDS011;69633;47.066;15.450;2024-02-26T03:15:24;3.60;;;1.73;;
80320;SDS011;69633;47.066;15.450;2024-02-26T03:17:51;7.70;;;1.55;;
80320;SDS011;69633;47.066;15.450;2024-02-26T03:20:19;4.57;;;1.70;;
80320;SDS011;69633;47.066;15.450;2024-02-26T03:22:46;3.97;;;2.28;;
80320;SDS011;69633;47.066;15.450;2024-02-26T03:25:13;4.00;;;1.67;;
80320;SDS011;69633;47.066;15.450;2024-02-26T03:27:40;5.60;;;1.83;;
80320;SDS011;69633;47.066;15.450;2024-02-26T03:30:07;4.82;;;1.75;;
80320;SDS011;69633;47.066;15.450;2024-02-26T03:32:35;6.32;;;1.98;;
80320;SDS011;69633;47.066;15.450;2024-02-26T03:35:00;3.53;;;1.77;;
80320;SDS011;69633;47.066;15.450;2024-02-26T03:37:28;3.60;;;1.80;;
80320;SDS011;69633;47.066;15.450;2024-02-26T03:39:54;6.63;;;2.35;;
80320;SDS011;69633;47.066;15.450;2024-02-26T03:42:20;3.97;;;1.92;;
80320;SDS011;69633;47.066;15.450;2024-02-26T03:44:46;3.88;;;1.85;;
80320;SDS011;69633;47.066;15.450;2024-02-26T03:47:13;5.72;;;2.13;;
80320;SDS011;69633;47.066;15.450;2024-02-26T03:49:40;4.47;;;2.08;;
80320;SDS011;69633;47.066;15.450;2024-02-26T03:52:05;3.33;;;1.92;;
80320;SDS011;69633;47.066;15.450;2024-02-26T03:54:32;3.58;;;1.52;;
80320;SDS011;69633;47.066;15.450;2024-02-26T03:57:00;3.67;;;2.08;;
80320;SDS011;69633;47.066;15.450;2024-02-26T03:59:26;3.92;;;1.65;;
80320;SDS011;69633;47.066;15.450;2024-02-26T04:01:53;2.55;;;1.52;;
80320;SDS011;69633;47.066;15.450;2024-02-26T04:04:20;3.95;;;1.77;;
80320;SDS011;69633;47.066;15.450;2024-02-26T04:06:46;3.42;;;1.73;;
80320;SDS011;69633;47.066;15.450;2024-02-26T04:09:13;8.75;;;1.92;;
80320;SDS011;69633;47.066;15.450;2024-02-26T04:11:41;3.92;;;2.25;;
80320;SDS011;69633;47.066;15.450;2024-02-26T04:14:10;3.47;;;1.70;;
80320;SDS011;69633;47.066;15.450;2024-02-26T04:16:37;4.32;;;1.90;;
80320;SDS011;69633;47.066;15.450;2024-02-26T04:19:06;3.17;;;1.75;;
80320;SDS011;69633;47.066;15.450;2024-02-26T04:21:34;2.78;;;1.75;;
80320;SDS011;69633;47.066;15.450;2024-02-26T04:24:00;5.40;;;3.13;;
80320;SDS011;69633;47.066;15.450;2024-02-26T04:26:28;4.50;;;1.92;;
80320;SDS011;69633;47.066;15.450;2024-02-26T04:28:56;2.85;;;1.90;;
80320;SDS011;69633;47.066;15.450;2024-02-26T04:31:22;5.80;;;2.05;;
80320;SDS011;69633;47.066;15.450;2024-02-26T04:33:47;4.68;;;1.63;;
80320;SDS011;69633;47.066;15.450;2024-02-26T04:36:14;7.88;;;2.13;;
80320;SDS011;69633;47.066;15.450;2024-02-26T04:38:43;5.47;;;1.80;;
80320;SDS011;69633;47.066;15.450;2024-02-26T04:41:15;8.43;;;2.13;;
80320;SDS011;69633;47.066;15.450;2024-02-26T04:43:42;5.68;;;1.80;;
80320;SDS011;69633;47.066;15.450;2024-02-26T04:46:08;8.10;;;2.50;;
80320;SDS011;69633;47.066;15.450;2024-02-26T04:48:36;6.25;;;2.17;;
80320;SDS011;69633;47.066;15.450;2024-02-26T04:51:02;3.00;;;1.90;;
80320;SDS011;69633;47.066;15.450;2024-02-26T04:53:30;3.88;;;2.28;;
80320;SDS011;69633;47.066;15.450;2024-02-26T04:55:57;3.10;;;1.45;;
80320;SDS011;69633;47.066;15.450;2024-02-26T04:58:25;2.55;;;1.67;;
80320;SDS011;69633;47.066;15.450;2024-02-26T05:00:51;4.97;;;1.80;;
80320;SDS011;69633;47.066;15.450;2024-02-26T05:03:18;4.55;;;1.70;;
80320;SDS011;69633;47.066;15.450;2024-02-26T05:05:45;5.10;;;1.98;;
80320;SDS011;69633;47.066;15.450;2024-02-26T05:08:10;4.40;;;1.73;;
80320;SDS011;69633;47.066;15.450;2024-02-26T05:10:37;4.88;;;1.83;;
80320;SDS011;69633;47.066;15.450;2024-02-26T05:13:07;5.93;;;2.20;;
80320;SDS011;69633;47.066;15.450;2024-02-26T05:15:33;3.50;;;1.95;;
80320;SDS011;69633;47.066;15.450;2024-02-26T05:17:59;5.22;;;2.55;;
80320;SDS011;69633;47.066;15.450;2024-02-26T05:20:25;4.03;;;2.13;;
80320;SDS011;69633;47.066;15.450;2024-02-26T05:22:51;6.18;;;2.15;;
80320;SDS011;69633;47.066;15.450;2024-02-26T05:25:17;5.32;;;2.40;;
80320;SDS011;69633;47.066;15.450;2024-02-26T05:27:44;4.18;;;2.25;;
80320;SDS011;69633;47.066;15.450;2024-02-26T05:30:11;5.65;;;2.17;;
80320;SDS011;69633;47.066;15.450;2024-02-26T05:32:38;3.78;;;2.05;;
80320;SDS011;69633;47.066;15.450;2024-02-26T05:35:05;5.93;;;1.98;;
80320;SDS011;69633;47.066;15.450;2024-02-26T05:37:33;5.22;;;2.40;;
80320;SDS011;69633;47.066;15.450;2024-02-26T05:40:00;4.70;;;2.70;;
80320;SDS011;69633;47.066;15.450;2024-02-26T05:42:30;5.03;;;2.28;;
80320;SDS011;69633;47.066;15.450;2024-02-26T05:44:57;6.38;;;2.10;;
80320;SDS011;69633;47.066;15.450;2024-02-26T05:47:25;4.18;;;2.08;;
80320;SDS011;69633;47.066;15.450;2024-02-26T05:49:50;3.70;;;1.85;;
80320;SDS011;69633;47.066;15.450;2024-02-26T05:52:17;4.95;;;2.30;;
80320;SDS011;69633;47.066;15.450;2024-02-26T05:54:42;7.97;;;1.95;;
80320;SDS011;69633;47.066;15.450;2024-02-26T05:57:09;8.25;;;2.20;;
80320;SDS011;69633;47.066;15.450;2024-02-26T05:59:34;3.50;;;2.20;;
80320;SDS011;69633;47.066;15.450;2024-02-26T06:02:01;2.95;;;1.60;;
80320;SDS011;69633;47.066;15.450;2024-02-26T06:04:28;8.30;;;2.33;;
80320;SDS011;69633;47.066;15.450;2024-02-26T06:06:56;6.63;;;2.05;;
80320;SDS011;69633;47.066;15.450;2024-02-26T06:09:22;4.90;;;2.35;;
80320;SDS011;69633;47.066;15.450;2024-02-26T06:11:49;5.63;;;2.65;;
80320;SDS011;69633;47.066;15.450;2024-02-26T06:14:16;4.53;;;2.10;;
80320;SDS011;69633;47.066;15.450;2024-02-26T06:16:45;3.78;;;2.38;;
80320;SDS011;69633;47.066;15.450;2024-02-26T06:19:16;3.28;;;1.60;;
80320;SDS011;69633;47.066;15.450;2024-02-26T06:21:43;5.57;;;2.00;;
80320;SDS011;69633;47.066;15.450;2024-02-26T06:24:08;7.47;;;2.50;;
80320;SDS011;69633;47.066;15.450;2024-02-26T06:26:34;5.28;;;2.35;;
80320;SDS011;69633;47.066;15.450;2024-02-26T06:29:00;4.50;;;2.20;;
80320;SDS011;69633;47.066;15.450;2024-02-26T06:31:28;4.20;;;2.10;;
80320;SDS011;69633;47.066;15.450;2024-02-26T06:33:55;8.07;;;2.28;;
80320;SDS011;69633;47.066;15.450;2024-02-26T06:36:23;10.13;;;4.43;;
80320;SDS011;69633;47.066;15.450;2024-02-26T06:38:48;6.97;;;2.83;;
80320;SDS011;69633;47.066;15.450;2024-02-26T06:41:17;8.40;;;2.30;;
80320;SDS011;69633;47.066;15.450;2024-02-26T06:43:43;6.15;;;2.30;;
80320;SDS011;69633;47.066;15.450;2024-02-26T06:46:09;5.63;;;2.92;;
80320;SDS011;69633;47.066;15.450;2024-02-26T06:48:35;7.78;;;2.45;;
80320;SDS011;69633;47.066;15.450;2024-02-26T06:51:03;9.30;;;2.75;;
80320;SDS011;69633;47.066;15.450;2024-02-26T06:53:30;6.38;;;2.45;;
80320;SDS011;69633;47.066;15.450;2024-02-26T06:55:56;6.32;;;2.60;;
80320;SDS011;69633;47.066;15.450;2024-02-26T06:58:24;13.23;;;2.65;;
80320;SDS011;69633;47.066;15.450;2024-02-26T07:00:51;8.18;;;2.53;;
80320;SDS011;69633;47.066;15.450;2024-02-26T07:03:16;5.45;;;2.53;;
80320;SDS011;69633;47.066;15.450;2024-02-26T07:05:41;6.95;;;3.00;;
80320;SDS011;69633;47.066;15.450;2024-02-26T07:08:08;7.32;;;3.08;;
80320;SDS011;69633;47.066;15.450;2024-02-26T07:10:34;10.77;;;2.97;;
80320;SDS011;69633;47.066;15.450;2024-02-26T07:13:01;6.95;;;3.05;;
80320;SDS011;69633;47.066;15.450;2024-02-26T07:15:27;5.53;;;3.05;;
80320;SDS011;69633;47.066;15.450;2024-02-26T07:17:54;6.43;;;3.28;;
80320;SDS011;69633;47.066;15.450;2024-02-26T07:20:19;15.60;;;3.55;;
80320;SDS011;69633;47.066;15.450;2024-02-26T07:22:46;6.00;;;2.72;;
80320;SDS011;69633;47.066;15.450;2024-02-26T07:25:13;9.07;;;3.40;;
80320;SDS011;69633;47.066;15.450;2024-02-26T07:27:43;6.55;;;3.40;;
80320;SDS011;69633;47.066;15.450;2024-02-26T07:30:09;9.05;;;4.00;;
80320;SDS011;69633;47.066;15.450;2024-02-26T07:32:39;11.02;;;4.28;;
80320;SDS011;69633;47.066;15.450;2024-02-26T07:35:07;8.15;;;3.20;;
80320;SDS011;69633;47.066;15.450;2024-02-26T07:37:37;7.85;;;2.65;;
80320;SDS011;69633;47.066;15.450;2024-02-26T07:40:04;9.35;;;3.25;;
80320;SDS011;69633;47.066;15.450;2024-02-26T07:42:35;11.80;;;3.83;;
80320;SDS011;69633;47.066;15.450;2024-02-26T07:45:02;14.88;;;2.83;;
80320;SDS011;69633;47.066;15.450;2024-02-26T07:47:31;18.48;;;3.50;;
80320;SDS011;69633;47.066;15.450;2024-02-26T07:50:00;19.48;;;3.35;;
80320;SDS011;69633;47.066;15.450;2024-02-26T07:52:29;11.48;;;3.03;;
80320;SDS011;69633;47.066;15.450;2024-02-26T07:54:56;21.25;;;4.00;;
80320;SDS011;69633;47.066;15.450;2024-02-26T07:57:23;9.82;;;3.30;;
80320;SDS011;69633;47.066;15.450;2024-02-26T07:59:49;8.75;;;3.30;;
80320;SDS011;69633;47.066;15.450;2024-02-26T08:02:16;24.63;;;4.28;;
80320;SDS011;69633;47.066;15.450;2024-02-26T08:04:43;19.92;;;3.22;;
80320;SDS011;69633;47.066;15.450;2024-02-26T08:07:08;13.45;;;3.22;;
80320;SDS011;69633;47.066;15.450;2024-02-26T08:09:35;15.35;;;3.65;;
80320;SDS011;69633;47.066;15.450;2024-02-26T08:12:01;24.50;;;3.55;;
80320;SDS011;69633;47.066;15.450;2024-02-26T08:14:27;23.58;;;3.22;;
80320;SDS011;69633;47.066;15.450;2024-02-26T08:16:53;10.90;;;2.70;;
80320;SDS011;69633;47.066;15.450;2024-02-26T08:19:19;6.47;;;2.95;;
80320;SDS011;69633;47.066;15.450;2024-02-26T08:21:47;6.15;;;2.20;;
80320;SDS011;69633;47.066;15.450;2024-02-26T08:24:14;5.30;;;2.75;;
80320;SDS011;69633;47.066;15.450;2024-02-26T08:26:40;3.10;;;2.00;;
80320;SDS011;69633;47.066;15.450;2024-02-26T08:29:08;9.23;;;2.60;;
80320;SDS011;69633;47.066;15.450;2024-02-26T08:31:35;6.82;;;2.40;;
80320;SDS011;69633;47.066;15.450;2024-02-26T08:34:03;5.50;;;3.15;;
80320;SDS011;69633;47.066;15.450;2024-02-26T08:36:31;3.97;;;2.33;;
80320;SDS011;69633;47.066;15.450;2024-02-26T08:39:09;5.65;;;2.10;;
80320;SDS011;69633;47.066;15.450;2024-02-26T08:41:35;4.05;;;2.15;;
80320;SDS011;69633;47.066;15.450;2024-02-26T08:44:02;8.68;;;2.53;;
80320;SDS011;69633;47.066;15.450;2024-02-26T08:46:28;7.28;;;2.20;;
80320;SDS011;69633;47.066;15.450;2024-02-26T08:48:56;4.50;;;1.88;;
80320;SDS011;69633;47.066;15.450;2024-02-26T08:51:23;3.03;;;1.83;;
80320;SDS011;69633;47.066;15.450;2024-02-26T08:53:48;3.25;;;1.85;;
80320;SDS011;69633;47.066;15.450;2024-02-26T08:56:15;7.55;;;2.17;;
80320;SDS011;69633;47.066;15.450;2024-02-26T08:58:45;6.95;;;2.03;;
80320;SDS011;69633;47.066;15.450;2024-02-26T09:01:22;3.38;;;1.95;;
80320;SDS011;69633;47.066;15.450;2024-02-26T09:03:49;8.52;;;2.22;;
80320;SDS011;69633;47.066;15.450;2024-02-26T09:06:16;4.18;;;1.80;;
80320;SDS011;69633;47.066;15.450;2024-02-26T09:08:41;5.43;;;2.85;;
80320;SDS011;69633;47.066;15.450;2024-02-26T09:11:08;8.48;;;2.45;;
80320;SDS011;69633;47.066;15.450;2024-02-26T09:13:36;8.05;;;2.60;;
80320;SDS011;69633;47.066;15.450;2024-02-26T09:16:03;4.50;;;2.25;;
80320;SDS011;69633;47.066;15.450;2024-02-26T09:18:32;7.53;;;2.47;;
80320;SDS011;69633;47.066;15.450;2024-02-26T09:20:57;5.18;;;2.67;;
80320;SDS011;69633;47.066;15.450;2024-02-26T09:23:24;6.00;;;2.28;;
80320;SDS011;69633;47.066;15.450;2024-02-26T09:25:51;7.65;;;2.00;;
80320;SDS011;69633;47.066;15.450;2024-02-26T09:28:16;4.82;;;2.30;;
80320;SDS011;69633;47.066;15.450;2024-02-26T09:30:46;4.75;;;1.98;;
80320;SDS011;69633;47.066;15.450;2024-02-26T09:35:40;7.78;;;1.98;;
80320;SDS011;69633;47.066;15.450;2024-02-26T09:38:07;3.83;;;1.63;;
80320;SDS011;69633;47.066;15.450;2024-02-26T09:40:35;6.38;;;1.92;;
80320;SDS011;69633;47.066;15.450;2024-02-26T09:43:04;5.05;;;2.30;;
80320;SDS011;69633;47.066;15.450;2024-02-26T09:45:33;4.35;;;1.80;;
80320;SDS011;69633;47.066;15.450;2024-02-26T09:48:02;3.55;;;1.98;;
80320;SDS011;69633;47.066;15.450;2024-02-26T09:50:30;3.50;;;1.77;;
80320;SDS011;69633;47.066;15.450;2024-02-26T09:52:57;5.32;;;2.15;;
80320;SDS011;69633;47.066;15.450;2024-02-26T09:55:27;5.93;;;1.85;;
80320;SDS011;69633;47.066;15.450;2024-02-26T09:57:53;5.03;;;1.83;;
80320;SDS011;69633;47.066;15.450;2024-02-26T10:00:22;3.28;;;1.75;;
80320;SDS011;69633;47.066;15.450;2024-02-26T10:02:49;3.53;;;1.85;;
80320;SDS011;69633;47.066;15.450;2024-02-26T10:05:28;4.53;;;2.20;;
80320;SDS011;69633;47.066;15.450;2024-02-26T10:07:55;5.30;;;1.80;;
80320;SDS011;69633;47.066;15.450;2024-02-26T10:10:23;4.60;;;2.10;;
80320;SDS011;69633;47.066;15.450;2024-02-26T10:12:50;4.28;;;2.05;;
80320;SDS011;69633;47.066;15.450;2024-02-26T10:15:19;4.30;;;2.30;;
80320;SDS011;69633;47.066;15.450;2024-02-26T10:17:51;7.10;;;2.15;;
80320;SDS011;69633;47.066;15.450;2024-02-26T10:20:17;3.03;;;1.45;;
80320;SDS011;69633;47.066;15.450;2024-02-26T10:25:12;2.53;;;1.40;;
80320;SDS011;69633;47.066;15.450;2024-02-26T10:27:43;7.93;;;1.80;;
80320;SDS011;69633;47.066;15.450;2024-02-26T10:33:01;2.45;;;1.20;;
80320;SDS011;69633;47.066;15.450;2024-02-26T10:35:28;4.65;;;0.95;;
80320;SDS011;69633;47.066;15.450;2024-02-26T10:37:59;2.90;;;1.25;;
80320;SDS011;69633;47.066;15.450;2024-02-26T10:40:24;2.63;;;1.02;;
80320;SDS011;69633;47.066;15.450;2024-02-26T10:42:52;3.55;;;1.25;;
80320;SDS011;69633;47.066;15.450;2024-02-26T10:45:19;1.80;;;1.10;;
80320;SDS011;69633;47.066;15.450;2024-02-26T10:47:46;3.80;;;1.50;;
80320;SDS011;69633;47.066;15.450;2024-02-26T10:50:14;2.63;;;1.17;;
80320;SDS011;69633;47.066;15.450;2024-02-26T10:52:43;3.00;;;1.10;;
80320;SDS011;69633;47.066;15.450;2024-02-26T10:55:15;3.33;;;1.00;;
80320;SDS011;69633;47.066;15.450;2024-02-26T10:57:46;2.50;;;1.00;;
80320;SDS011;69633;47.066;15.450;2024-02-26T11:00:14;3.67;;;1.20;;
80320;SDS011;69633;47.066;15.450;2024-02-26T11:02:45;4.60;;;1.20;;
80320;SDS011;69633;47.066;15.450;2024-02-26T11:05:14;2.33;;;1.10;;
80320;SDS011;69633;47.066;15.450;2024-02-26T11:07:42;1.73;;;0.93;;
80320;SDS011;69633;47.066;15.450;2024-02-26T11:10:09;2.80;;;1.17;;
80320;SDS011;69633;47.066;15.450;2024-02-26T11:12:37;4.22;;;1.00;;
80320;SDS011;69633;47.066;15.450;2024-02-26T11:15:21;2.20;;;1.10;;
80320;SDS011;69633;47.066;15.450;2024-02-26T11:17:48;6.03;;;1.92;;
80320;SDS011;69633;47.066;15.450;2024-02-26T11:20:19;1.90;;;1.08;;
80320;SDS011;69633;47.066;15.450;2024-02-26T11:22:46;2.45;;;1.10;;
80320;SDS011;69633;47.066;15.450;2024-02-26T11:25:11;2.60;;;1.23;;
80320;SDS011;69633;47.066;15.450;2024-02-26T11:27:55;2.53;;;1.20;;
80320;SDS011;69633;47.066;15.450;2024-02-26T11:30:29;2.35;;;1.30;;
80320;SDS011;69633;47.066;15.450;2024-02-26T11:35:26;2.58;;;1.48;;
80320;SDS011;69633;47.066;15.450;2024-02-26T11:37:53;2.28;;;1.15;;
80320;SDS011;69633;47.066;15.450;2024-02-26T11:40:21;5.15;;;1.50;;
80320;SDS011;69633;47.066;15.450;2024-02-26T11:42:51;3.67;;;1.70;;
80320;SDS011;69633;47.066;15.450;2024-02-26T11:48:25;4.30;;;1.73;;
80320;SDS011;69633;47.066;15.450;2024-02-26T11:50:56;3.38;;;1.67;;
80320;SDS011;69633;47.066;15.450;2024-02-26T11:56:24;3.65;;;1.73;;
80320;SDS011;69633;47.066;15.450;2024-02-26T11:59:05;7.22;;;1.70;;
80320;SDS011;69633;47.066;15.450;2024-02-26T12:01:36;4.82;;;1.83;;
80320;SDS011;69633;47.066;15.450;2024-02-26T12:04:24;4.45;;;1.63;;
80320;SDS011;69633;47.066;15.450;2024-02-26T12:06:57;7.65;;;1.40;;
80320;SDS011;69633;47.066;15.450;2024-02-26T12:12:18;3.53;;;1.50;;
80320;SDS011;69633;47.066;15.450;2024-02-26T12:14:51;2.63;;;1.42;;
80320;SDS011;69633;47.066;15.450;2024-02-26T12:17:40;2.92;;;1.15;;
80320;SDS011;69633;47.066;15.450;2024-02-26T12:20:10;4.28;;;1.67;;
80320;SDS011;69633;47.066;15.450;2024-02-26T12:22:37;3.00;;;1.50;;
80320;SDS011;69633;47.066;15.450;2024-02-26T12:25:10;2.42;;;1.40;;
80320;SDS011;69633;47.066;15.450;2024-02-26T12:27:37;2.92;;;1.58;;
80320;SDS011;69633;47.066;15.450;2024-02-26T12:30:05;4.45;;;1.58;;
80320;SDS011;69633;47.066;15.450;2024-02-26T12:32:32;5.97;;;1.67;;
80320;SDS011;69633;47.066;15.450;2024-02-26T12:34:58;3.22;;;1.27;;
80320;SDS011;69633;47.066;15.450;2024-02-26T12:37:27;3.85;;;1.33;;
80320;SDS011;69633;47.066;15.450;2024-02-26T12:39:55;3.95;;;1.70;;
80320;SDS011;69633;47.066;15.450;2024-02-26T12:42:22;8.65;;;1.30;;
80320;SDS011;69633;47.066;15.450;2024-02-26T12:44:53;3.55;;;1.40;;
80320;SDS011;69633;47.066;15.450;2024-02-26T12:47:20;5.75;;;1.67;;
80320;SDS011;69633;47.066;15.450;2024-02-26T12:49:47;3.78;;;1.60;;
80320;SDS011;69633;47.066;15.450;2024-02-26T12:52:14;2.90;;;1.48;;
80320;SDS011;69633;47.066;15.450;2024-02-26T12:54:42;2.30;;;1.52;;
80320;SDS011;69633;47.066;15.450;2024-02-26T12:57:12;5.68;;;1.60;;
80320;SDS011;69633;47.066;15.450;2024-02-26T12:59:37;2.63;;;1.35;;
80320;SDS011;69633;47.066;15.450;2024-02-26T13:02:05;3.92;;;1.20;;
80320;SDS011;69633;47.066;15.450;2024-02-26T13:04:32;3.35;;;1.30;;
80320;SDS011;69633;47.066;15.450;2024-02-26T13:07:02;2.10;;;1.30;;
80320;SDS011;69633;47.066;15.450;2024-02-26T13:09:34;5.20;;;1.67;;
80320;SDS011;69633;47.066;15.450;2024-02-26T13:12:05;5.38;;;1.52;;
80320;SDS011;69633;47.066;15.450;2024-02-26T13:14:34;6.60;;;1.70;;
80320;SDS011;69633;47.066;15.450;2024-02-26T13:17:01;2.83;;;1.40;;
80320;SDS011;69633;47.066;15.450;2024-02-26T13:19:28;2.88;;;1.15;;
80320;SDS011;69633;47.066;15.450;2024-02-26T13:22:03;2.58;;;1.30;;
80320;SDS011;69633;47.066;15.450;2024-02-26T13:27:03;3.35;;;1.33;;
80320;SDS011;69633;47.066;15.450;2024-02-26T13:29:32;6.15;;;1.20;;
80320;SDS011;69633;47.066;15.450;2024-02-26T13:31:59;3.67;;;1.60;;
80320;SDS011;69633;47.066;15.450;2024-02-26T13:34:25;3.10;;;1.10;;
80320;SDS011;69633;47.066;15.450;2024-02-26T13:36:56;4.25;;;1.13;;
80320;SDS011;69633;47.066;15.450;2024-02-26T13:39:23;4.68;;;1.90;;
80320;SDS011;69633;47.066;15.450;2024-02-26T13:41:50;4.80;;;1.40;;
80320;SDS011;69633;47.066;15.450;2024-02-26T13:44:18;4.32;;;1.40;;
80320;SDS011;69633;47.066;15.450;2024-02-26T13:46:47;3.65;;;1.30;;
80320;SDS011;69633;47.066;15.450;2024-02-26T13:49:19;3.05;;;0.95;;
80320;SDS011;69633;47.066;15.450;2024-02-26T13:51:45;1.60;;;1.10;;
80320;SDS011;69633;47.066;15.450;2024-02-26T13:54:12;2.25;;;1.10;;
80320;SDS011;69633;47.066;15.450;2024-02-26T13:56:44;2.70;;;1.45;;
80320;SDS011;69633;47.066;15.450;2024-02-26T13:59:10;2.13;;;1.20;;
80320;SDS011;69633;47.066;15.450;2024-02-26T14:01:36;3.15;;;1.05;;
80320;SDS011;69633;47.066;15.450;2024-02-26T14:04:02;3.22;;;1.75;;
80320;SDS011;69633;47.066;15.450;2024-02-26T14:06:30;2.22;;;0.90;;
80320;SDS011;69633;47.066;15.450;2024-02-26T14:08:57;4.13;;;1.13;;
80320;SDS011;69633;47.066;15.450;2024-02-26T14:11:22;3.20;;;1.10;;
80320;SDS011;69633;47.066;15.450;2024-02-26T14:13:49;2.45;;;1.00;;
80320;SDS011;69633;47.066;15.450;2024-02-26T14:16:15;1.33;;;1.00;;
80320;SDS011;69633;47.066;15.450;2024-02-26T14:18:43;2.25;;;1.13;;
80320;SDS011;69633;47.066;15.450;2024-02-26T14:21:11;2.97;;;1.35;;
80320;SDS011;69633;47.066;15.450;2024-02-26T14:23:36;1.38;;;0.90;;
80320;SDS011;69633;47.066;15.450;2024-02-26T14:26:11;3.08;;;1.27;;
80320;SDS011;69633;47.066;15.450;2024-02-26T14:28:38;2.97;;;0.90;;
80320;SDS011;69633;47.066;15.450;2024-02-26T14:31:06;4.88;;;1.10;;
80320;SDS011;69633;47.066;15.450;2024-02-26T14:33:39;2.85;;;0.93;;
80320;SDS011;69633;47.066;15.450;2024-02-26T14:36:11;2.97;;;1.20;;
80320;SDS011;69633;47.066;15.450;2024-02-26T14:38:43;1.92;;;1.00;;
80320;SDS011;69633;47.066;15.450;2024-02-26T14:41:14;3.15;;;1.05;;
80320;SDS011;69633;47.066;15.450;2024-02-26T14:43:40;2.67;;;1.20;;
80320;SDS011;69633;47.066;15.450;2024-02-26T14:46:05;3.88;;;1.08;;
80320;SDS011;69633;47.066;15.450;2024-02-26T14:48:33;2.17;;;0.90;;
80320;SDS011;69633;47.066;15.450;2024-02-26T14:50:59;2.03;;;1.13;;
80320;SDS011;69633;47.066;15.450;2024-02-26T14:53:26;3.22;;;1.00;;
80320;SDS011;69633;47.066;15.450;2024-02-26T14:55:52;1.88;;;1.13;;
80320;SDS011;69633;47.066;15.450;2024-02-26T14:58:18;2.17;;;0.90;;